Time;durP1;ratioP1;P1;durP2;ratioP2;P2;SDS_P1;SDS_P2;PMS_P1;PMS_P2;Temp;Humidity;BMP_temperature;BMP_pressure;BME280_temperature;BME280_humidity;BME280_pressure;Samples;Min_cycle;Max_cycle;Signal;HPM_P1;HPM_P2
2021/06/07 06:20:06;;;;;;;6.60;3.65;;;22.00;92.50;;;;;;5128406;27;20767;-62
2021/06/07 06:22:32;;;;;;;6.60;4.07;;;22.00;92.60;;;;;;5129351;27;20020;-62
2021/06/07 06:24:57;;;;;;;4.63;3.58;;;22.10;92.40;;;;;;5129851;28;20027;-63
2021/06/07 06:27:23;;;;;;;4.40;3.97;;;22.10;92.30;;;;;;5129620;28;20053;-64
2021/06/07 06:29:50;;;;;;;4.80;4.28;;;22.10;92.20;;;;;;5128759;28;20459;-63
2021/06/07 06:32:16;;;;;;;8.38;3.70;;;22.10;92.10;;;;;;5129158;28;20035;-65
2021/06/07 06:34:42;;;;;;;6.28;3.90;;;22.10;92.30;;;;;;5128958;27;20024;-62
2021/06/07 06:37:08;;;;;;;6.00;3.80;;;22.10;92.20;;;;;;5129758;28;20516;-62
2021/06/07 06:39:34;;;;;;;5.43;3.75;;;22.20;92.20;;;;;;5129184;28;20031;-62
2021/06/07 06:42:02;;;;;;;5.57;3.50;;;22.20;92.30;;;;;;5126231;28;20983;-63
2021/06/07 06:44:27;;;;;;;5.00;3.17;;;22.20;92.20;;;;;;5125269;28;20069;-62
2021/06/07 06:46:53;;;;;;;5.30;3.20;;;22.30;92.20;;;;;;5127588;28;20501;-63
2021/06/07 06:49:19;;;;;;;9.85;3.45;;;22.30;92.10;;;;;;5128946;28;20024;-63
2021/06/07 06:51:44;;;;;;;5.05;2.95;;;22.40;92.20;;;;;;5128427;28;20034;-62
2021/06/07 06:54:10;;;;;;;4.95;2.72;;;22.50;92.10;;;;;;5128767;28;20027;-63
2021/06/07 06:56:36;;;;;;;7.43;2.53;;;22.60;92.30;;;;;;5128563;28;20027;-64
2021/06/07 06:59:02;;;;;;;4.70;2.15;;;22.60;91.80;;;;;;5128761;27;20694;-62
2021/06/07 07:01:28;;;;;;;7.28;2.45;;;22.60;91.90;;;;;;5127851;28;20387;-64
2021/06/07 07:03:55;;;;;;;3.47;1.90;;;22.70;92.10;;;;;;5126139;28;20038;-63
2021/06/07 07:06:24;;;;;;;3.63;1.88;;;22.70;92.10;;;;;;5126220;28;20428;-63
2021/06/07 07:08:51;;;;;;;4.85;1.80;;;22.70;92.00;;;;;;5128518;27;20043;-63
2021/06/07 07:11:16;;;;;;;5.30;1.80;;;22.70;91.90;;;;;;5128754;27;20463;-63
2021/06/07 07:13:42;;;;;;;4.03;1.70;;;22.80;91.90;;;;;;5128474;27;20034;-63
2021/06/07 07:16:08;;;;;;;3.65;1.75;;;22.80;91.80;;;;;;5128372;28;20072;-64
2021/06/07 07:18:33;;;;;;;3.13;1.55;;;23.00;91.70;;;;;;5128007;27;20031;-64
2021/06/07 07:20:59;;;;;;;3.03;1.52;;;23.20;91.50;;;;;;5128514;28;20429;-64
2021/06/07 07:23:25;;;;;;;2.80;1.50;;;23.30;91.50;;;;;;5128704;28;20527;-64
2021/06/07 07:25:51;;;;;;;3.53;1.30;;;23.40;91.70;;;;;;5128009;28;20019;-65
2021/06/07 07:28:17;;;;;;;2.50;1.42;;;23.50;91.30;;;;;;5128615;28;20068;-63
2021/06/07 07:30:44;;;;;;;2.53;1.15;;;23.60;91.30;;;;;;5118085;28;20399;-63
2021/06/07 07:33:10;;;;;;;4.72;1.40;;;23.60;91.30;;;;;;5114631;28;20437;-64
2021/06/07 07:35:36;;;;;;;2.10;1.17;;;23.70;91.20;;;;;;5114485;28;20080;-64
2021/06/07 07:38:03;;;;;;;2.03;1.20;;;23.70;91.10;;;;;;5113937;28;20043;-64
2021/06/07 07:40:30;;;;;;;2.35;1.20;;;23.70;91.10;;;;;;5114284;28;20051;-64
2021/06/07 07:42:57;;;;;;;1.88;1.20;;;23.80;91.10;;;;;;5114280;28;20054;-63
2021/06/07 07:45:26;;;;;;;1.83;1.20;;;23.80;91.10;;;;;;5114774;28;20455;-64
2021/06/07 07:47:57;;;;;;;2.00;1.30;;;23.90;91.10;;;;;;5114266;28;20037;-64
2021/06/07 07:50:23;;;;;;;2.60;1.50;;;23.80;91.20;;;;;;5114588;28;20031;-64
2021/06/07 07:52:50;;;;;;;2.58;1.13;;;23.90;91.20;;;;;;5113493;28;20024;-65
2021/06/07 07:55:24;;;;;;;1.95;1.20;;;23.90;91.10;;;;;;5114511;28;20027;-64
2021/06/07 07:57:51;;;;;;;2.03;1.13;;;23.90;91.00;;;;;;5114108;28;20032;-63
2021/06/07 08:00:20;;;;;;;2.40;1.17;;;23.90;91.00;;;;;;5114342;27;20115;-63
2021/06/07 08:02:46;;;;;;;1.27;1.10;;;23.90;90.90;;;;;;5113722;28;20023;-63
2021/06/07 08:05:12;;;;;;;2.70;1.20;;;24.00;91.10;;;;;;5113979;28;20523;-63
2021/06/07 08:07:39;;;;;;;3.38;1.20;;;24.00;91.30;;;;;;5113085;28;20464;-63
2021/06/07 08:10:06;;;;;;;1.85;1.30;;;24.00;91.10;;;;;;5111835;28;20398;-62
2021/06/07 08:12:32;;;;;;;3.25;1.33;;;24.00;91.20;;;;;;5113673;28;20047;-62
2021/06/07 08:14:58;;;;;;;1.58;1.20;;;24.10;91.20;;;;;;5113770;28;20059;-63
2021/06/07 08:17:23;;;;;;;3.00;1.50;;;24.10;91.20;;;;;;5114175;27;20027;-64
2021/06/07 08:19:49;;;;;;;2.97;1.63;;;24.30;90.90;;;;;;5113419;28;20475;-63
2021/06/07 08:22:17;;;;;;;3.25;1.23;;;24.50;90.80;;;;;;5113548;28;20394;-63
2021/06/07 08:24:43;;;;;;;2.15;1.40;;;24.60;90.60;;;;;;5113930;28;20035;-63
2021/06/07 08:27:08;;;;;;;3.13;1.40;;;24.70;90.50;;;;;;5113819;28;20024;-63
2021/06/07 08:29:34;;;;;;;2.13;1.40;;;24.70;90.60;;;;;;5113105;28;20418;-63
2021/06/07 08:32:00;;;;;;;2.80;1.63;;;24.70;90.60;;;;;;5113353;28;20072;-63
2021/06/07 08:34:26;;;;;;;2.20;1.05;;;24.70;90.60;;;;;;5113287;28;20058;-63
2021/06/07 08:36:52;;;;;;;2.15;1.40;;;24.70;90.50;;;;;;5113074;28;20550;-62
2021/06/07 08:39:17;;;;;;;1.52;1.30;;;24.40;90.60;;;;;;5113570;28;20099;-63
2021/06/07 08:41:43;;;;;;;3.80;1.50;;;24.30;90.90;;;;;;5112330;28;20027;-63
2021/06/07 08:44:09;;;;;;;2.20;1.00;;;24.20;90.90;;;;;;5112958;28;20028;-63
2021/06/07 08:46:34;;;;;;;1.63;1.20;;;24.20;91.10;;;;;;5112589;28;20035;-63
2021/06/07 08:49:00;;;;;;;3.92;1.35;;;24.20;91.30;;;;;;5112969;28;20530;-63
2021/06/07 08:51:26;;;;;;;2.05;1.10;;;24.10;91.40;;;;;;5112610;28;20019;-67
2021/06/07 08:53:54;;;;;;;2.70;1.30;;;24.10;91.30;;;;;;5112936;28;20026;-66
2021/06/07 08:56:20;;;;;;;1.95;1.23;;;24.10;91.40;;;;;;5113193;28;20031;-67
2021/06/07 08:58:47;;;;;;;2.70;1.33;;;24.10;91.50;;;;;;5112625;28;20032;-63
2021/06/07 09:01:14;;;;;;;1.98;1.08;;;24.10;91.50;;;;;;5113001;28;20491;-63
2021/06/07 09:03:40;;;;;;;2.30;1.40;;;24.10;91.50;;;;;;5112800;28;20020;-63
2021/06/07 09:06:06;;;;;;;3.05;1.40;;;24.10;91.50;;;;;;5112481;28;20464;-66
2021/06/07 09:08:37;;;;;;;1.33;1.13;;;24.10;91.60;;;;;;5112604;28;20479;-63
2021/06/07 09:11:09;;;;;;;2.05;1.40;;;24.20;91.70;;;;;;5112677;28;20047;-62
2021/06/07 09:13:35;;;;;;;1.90;1.30;;;24.20;91.50;;;;;;5112078;28;20407;-62
2021/06/07 09:16:02;;;;;;;1.90;1.20;;;24.20;91.50;;;;;;5112723;28;20104;-66
2021/06/07 09:18:35;;;;;;;1.48;1.30;;;24.20;91.40;;;;;;5111919;28;20360;-64
2021/06/07 09:21:04;;;;;;;2.60;1.35;;;24.20;91.60;;;;;;5112521;28;20028;-63
2021/06/07 09:23:55;;;;;;;2.45;1.45;;;24.20;91.60;;;;;;5112264;28;20431;-63
2021/06/07 09:26:24;;;;;;;2.60;1.50;;;24.20;91.70;;;;;;5112410;28;20028;-65
2021/06/07 09:28:50;;;;;;;1.88;1.10;;;24.20;91.60;;;;;;5112063;28;20395;-66
2021/06/07 09:31:16;;;;;;;3.22;1.20;;;24.20;91.80;;;;;;5112434;28;20032;-63
2021/06/07 09:33:49;;;;;;;2.63;1.70;;;24.30;91.50;;;;;;5112363;28;20038;-63
2021/06/07 09:36:27;;;;;;;2.50;1.48;;;24.30;91.60;;;;;;5112277;28;20019;-63
2021/06/07 09:39:14;;;;;;;1.92;1.27;;;24.30;91.60;;;;;;5111691;28;20054;-63
2021/06/07 09:42:02;;;;;;;4.53;1.30;;;24.30;91.60;;;;;;5108153;28;20379;-62
2021/06/07 09:44:41;;;;;;;2.25;1.40;;;24.30;91.70;;;;;;5111659;28;20074;-63
2021/06/07 09:47:30;;;;;;;2.17;1.40;;;24.30;91.70;;;;;;5112660;28;20028;-63
2021/06/07 09:50:04;;;;;;;2.35;1.50;;;24.30;91.70;;;;;;5111818;28;20031;-63
2021/06/07 09:52:44;;;;;;;1.85;1.20;;;24.30;91.60;;;;;;5111200;28;20365;-63
2021/06/07 09:55:13;;;;;;;2.45;1.40;;;24.30;91.70;;;;;;5112211;28;20032;-63
2021/06/07 09:57:50;;;;;;;1.88;1.40;;;24.40;91.60;;;;;;5111757;28;20024;-63
2021/06/07 10:00:41;;;;;;;4.78;1.55;;;24.40;91.80;;;;;;5111936;28;20042;-63
2021/06/07 10:03:24;;;;;;;1.65;1.27;;;24.40;91.60;;;;;;5111996;28;20470;-64
2021/06/07 10:05:51;;;;;;;2.20;1.48;;;24.40;91.40;;;;;;5110927;28;20027;-64
2021/06/07 10:08:24;;;;;;;1.90;1.30;;;24.40;91.60;;;;;;5112860;28;20020;-64
2021/06/07 10:10:51;;;;;;;2.58;1.42;;;24.50;91.60;;;;;;5111417;28;20114;-64
2021/06/07 10:13:17;;;;;;;3.00;1.40;;;24.40;91.70;;;;;;5111662;28;20539;-62
2021/06/07 10:15:45;;;;;;;2.05;1.48;;;24.50;91.80;;;;;;5112191;28;20057;-62
2021/06/07 10:18:12;;;;;;;2.22;1.20;;;24.50;91.70;;;;;;5111874;28;20032;-63
2021/06/07 10:20:49;;;;;;;2.15;1.35;;;24.50;91.80;;;;;;5110740;28;20028;-63
2021/06/07 10:23:30;;;;;;;2.03;1.40;;;24.50;91.90;;;;;;5111623;28;20028;-63
2021/06/07 10:26:01;;;;;;;1.65;1.10;;;24.50;91.60;;;;;;5111288;28;20367;-64
2021/06/07 10:28:36;;;;;;;2.55;1.38;;;24.50;91.60;;;;;;5111390;28;20020;-64
2021/06/07 10:31:15;;;;;;;3.20;1.42;;;24.50;91.80;;;;;;5111537;28;20383;-66
2021/06/07 10:33:42;;;;;;;1.30;1.20;;;24.50;91.90;;;;;;5111669;28;20051;-64
2021/06/07 10:36:26;;;;;;;1.50;1.20;;;24.60;91.70;;;;;;5111629;28;20039;-65
2021/06/07 10:39:13;;;;;;;2.25;1.58;;;24.50;91.70;;;;;;5111476;28;20011;-65
2021/06/07 10:41:40;;;;;;;2.35;1.30;;;24.60;91.70;;;;;;5111303;28;20020;-66
2021/06/07 10:44:06;;;;;;;2.20;1.20;;;24.60;91.70;;;;;;5111615;28;20027;-67
2021/06/07 10:46:43;;;;;;;1.40;1.10;;;24.60;91.80;;;;;;5111396;28;20028;-66
2021/06/07 10:49:48;;;;;;;1.45;1.10;;;24.60;91.70;;;;;;5109364;28;20096;-64
2021/06/07 10:52:22;;;;;;;;;;;24.60;91.70;;;;;;5111099;28;20115;-65
2021/06/07 10:55:09;;;;;;;2.33;1.35;;;24.60;91.60;;;;;;5111543;28;19908;-63
2021/06/07 10:57:39;;;;;;;2.63;1.23;;;24.60;91.70;;;;;;5110596;28;20043;-65
2021/06/07 11:00:14;;;;;;;2.55;1.30;;;24.60;91.80;;;;;;5110653;28;20027;-63
2021/06/07 11:02:42;;;;;;;3.78;1.55;;;24.60;91.50;;;;;;5110726;28;20491;-63
2021/06/07 11:05:08;;;;;;;1.80;1.27;;;24.50;91.60;;;;;;5111400;28;20038;-65
2021/06/07 11:07:35;;;;;;;1.90;1.20;;;24.30;91.60;;;;;;5113911;28;20023;-63
2021/06/07 11:10:22;;;;;;;2.15;1.20;;;24.10;91.70;;;;;;5113801;28;20040;-66
2021/06/07 11:12:50;;;;;;;2.88;1.38;;;24.00;91.90;;;;;;5111189;28;20062;-62
2021/06/07 11:15:27;;;;;;;2.13;1.30;;;24.00;91.90;;;;;;5114069;28;20048;-67
2021/06/07 11:18:21;;;;;;;2.22;1.27;;;24.00;92.00;;;;;;5111408;28;20505;-66
2021/06/07 11:20:53;;;;;;;1.77;1.38;;;23.90;92.00;;;;;;5113004;28;20084;-64
2021/06/07 11:23:41;;;;;;;1.85;1.45;;;24.00;92.10;;;;;;5115235;28;20016;-67
2021/06/07 11:26:11;;;;;;;1.73;1.00;;;23.90;92.00;;;;;;5115222;28;20024;-65
2021/06/07 11:28:41;;;;;;;2.78;1.20;;;23.90;92.00;;;;;;5114628;28;20035;-64
2021/06/07 11:31:18;;;;;;;2.65;1.40;;;23.90;92.10;;;;;;5114222;28;20028;-62
2021/06/07 11:34:01;;;;;;;3.40;1.13;;;23.90;92.10;;;;;;5113712;28;20416;-63
2021/06/07 11:36:50;;;;;;;3.63;1.42;;;23.90;92.00;;;;;;5113711;28;20023;-61
2021/06/07 11:39:19;;;;;;;1.80;0.98;;;23.80;92.10;;;;;;5114276;28;20100;-61
2021/06/07 11:41:44;;;;;;;2.25;1.38;;;23.80;92.10;;;;;;5114157;28;20591;-62
2021/06/07 11:44:10;;;;;;;1.85;1.15;;;23.80;92.10;;;;;;5114183;28;20050;-61
2021/06/07 11:46:39;;;;;;;1.77;1.10;;;23.80;92.10;;;;;;5114388;28;20020;-62
2021/06/07 11:49:18;;;;;;;1.77;1.00;;;23.80;92.10;;;;;;5114449;28;20110;-62
2021/06/07 11:51:46;;;;;;;1.50;1.10;;;23.80;92.10;;;;;;5114099;28;20062;-62
2021/06/07 11:54:27;;;;;;;2.42;1.20;;;23.80;92.10;;;;;;5113873;28;20031;-62
2021/06/07 11:57:01;;;;;;;2.75;1.02;;;23.80;92.10;;;;;;5113850;28;20019;-62
2021/06/07 11:59:29;;;;;;;1.63;1.20;;;23.80;92.10;;;;;;5114601;28;20027;-62
2021/06/07 12:01:55;;;;;;;2.97;1.15;;;23.80;92.20;;;;;;5114262;28;20558;-62
2021/06/07 12:04:32;;;;;;;1.80;0.98;;;24.00;92.50;;;;;;5113697;28;20106;-63
2021/06/07 12:07:09;;;;;;;2.92;1.20;;;23.90;92.20;;;;;;5113800;28;20529;-63
2021/06/07 12:09:37;;;;;;;3.72;1.30;;;23.90;92.40;;;;;;5113629;28;20089;-65
2021/06/07 12:12:05;;;;;;;1.52;1.00;;;24.00;92.30;;;;;;5114254;28;20024;-64
2021/06/07 12:14:40;;;;;;;1.92;1.20;;;24.10;92.50;;;;;;5113715;28;20093;-65
2021/06/07 12:17:39;;;;;;;3.20;1.10;;;24.10;92.70;;;;;;5113880;28;20379;-64
2021/06/07 12:20:07;;;;;;;3.00;1.10;;;24.20;92.80;;;;;;5113773;28;20036;-64
2021/06/07 12:22:35;;;;;;;2.38;1.20;;;24.30;92.60;;;;;;5113643;28;20436;-64
2021/06/07 12:30:37;;;;;;;2.35;1.40;;;24.40;92.30;;;;;;5113432;28;20047;-61
2021/06/07 12:33:03;;;;;;;3.78;1.30;;;24.40;92.40;;;;;;5113555;28;20070;-62
2021/06/07 12:35:35;;;;;;;2.45;1.13;;;24.30;92.40;;;;;;5113439;28;20028;-63
2021/06/07 12:38:06;;;;;;;2.10;1.08;;;24.20;92.30;;;;;;5113575;28;20020;-65
2021/06/07 12:40:43;;;;;;;2.35;1.30;;;24.20;92.30;;;;;;5113077;28;20024;-64
2021/06/07 12:43:09;;;;;;;3.63;1.25;;;24.30;92.50;;;;;;5113478;28;20024;-66
2021/06/07 12:45:41;;;;;;;3.60;1.00;;;24.40;92.50;;;;;;5113143;28;20031;-66
2021/06/07 12:48:11;;;;;;;3.88;1.20;;;24.40;92.40;;;;;;5112641;28;20035;-68
2021/06/07 12:50:38;;;;;;;2.53;1.10;;;24.50;92.30;;;;;;5113016;28;20386;-67
2021/06/07 12:53:04;;;;;;;3.17;1.40;;;24.60;92.20;;;;;;5112550;28;20123;-66
2021/06/07 12:55:36;;;;;;;1.92;1.23;;;24.60;92.20;;;;;;5112561;28;20080;-65
2021/06/07 12:58:07;;;;;;;3.25;1.35;;;24.60;92.20;;;;;;5113253;28;20090;-66
2021/06/07 13:00:37;;;;;;;1.90;1.08;;;24.60;92.10;;;;;;5113050;28;20051;-67
2021/06/07 13:03:15;;;;;;;3.78;1.23;;;24.70;92.10;;;;;;5112047;28;20080;-71
2021/06/07 13:05:41;;;;;;;2.72;1.30;;;24.70;92.10;;;;;;5112165;28;20468;-69
2021/06/07 13:08:10;;;;;;;2.55;1.00;;;24.70;92.10;;;;;;5112315;28;20036;-67
2021/06/07 13:10:42;;;;;;;1.40;1.30;;;24.70;92.00;;;;;;5112010;28;20084;-67
2021/06/07 13:13:15;;;;;;;1.35;1.00;;;24.80;92.00;;;;;;5112987;28;20050;-68
2021/06/07 13:15:41;;;;;;;1.30;1.08;;;24.80;92.00;;;;;;5112697;28;20088;-67
2021/06/07 13:18:06;;;;;;;2.78;1.20;;;24.80;92.00;;;;;;5112629;28;20043;-66
2021/06/07 13:20:33;;;;;;;3.13;1.38;;;24.80;91.90;;;;;;5111984;28;20012;-69
2021/06/07 13:22:59;;;;;;;1.75;1.30;;;24.90;92.20;;;;;;5112274;28;20038;-63
2021/06/07 13:25:29;;;;;;;2.92;1.40;;;24.90;92.00;;;;;;5112247;28;20023;-65
2021/06/07 13:28:14;;;;;;;1.73;1.15;;;24.90;92.00;;;;;;5112176;28;20035;-70
2021/06/07 13:30:40;;;;;;;1.70;1.40;;;24.90;92.20;;;;;;5111254;28;20527;-68
2021/06/07 13:33:06;;;;;;;1.65;1.20;;;24.90;92.10;;;;;;5112554;28;20076;-70
2021/06/07 13:35:31;;;;;;;1.77;1.17;;;24.90;92.00;;;;;;5112217;28;20023;-71
2021/06/07 13:37:57;;;;;;;2.60;1.60;;;25.00;92.40;;;;;;5112421;28;20030;-67
2021/06/07 13:40:26;;;;;;;1.70;1.33;;;25.00;92.00;;;;;;5111972;28;20475;-71
2021/06/07 13:43:04;;;;;;;1.83;1.27;;;25.00;92.20;;;;;;5111429;28;20043;-69
2021/06/07 13:45:39;;;;;;;1.95;1.20;;;25.00;92.20;;;;;;5112152;28;20024;-65
2021/06/07 13:48:08;;;;;;;1.33;0.98;;;25.00;92.10;;;;;;5111835;28;20110;-64
2021/06/07 13:50:53;;;;;;;1.40;1.15;;;25.00;91.80;;;;;;5111521;28;20059;-63
2021/06/07 13:53:20;;;;;;;1.60;1.10;;;24.90;91.90;;;;;;5112085;28;20115;-65
2021/06/07 13:55:48;;;;;;;1.73;1.00;;;24.90;92.00;;;;;;5111519;28;20100;-64
2021/06/07 13:58:18;;;;;;;1.30;1.15;;;24.90;92.20;;;;;;5112041;28;20387;-64
2021/06/07 14:00:56;;;;;;;3.30;1.10;;;24.90;92.10;;;;;;5111830;28;20059;-63
2021/06/07 14:03:25;;;;;;;1.25;1.15;;;24.90;92.20;;;;;;5112175;28;20379;-66
2021/06/07 14:05:53;;;;;;;2.13;1.15;;;24.90;92.20;;;;;;5111960;28;20026;-65
2021/06/07 14:08:27;;;;;;;1.80;1.00;;;24.90;92.30;;;;;;5110819;28;20028;-65
2021/06/07 14:10:55;;;;;;;2.40;0.90;;;24.90;92.20;;;;;;5109752;28;20028;-63
2021/06/07 14:13:22;;;;;;;2.75;1.10;;;24.90;92.30;;;;;;5114257;28;20020;-66
2021/06/07 14:15:49;;;;;;;2.40;0.95;;;25.00;92.30;;;;;;5111905;28;20050;-64
2021/06/07 14:18:15;;;;;;;2.50;1.17;;;25.00;92.30;;;;;;5111691;28;20036;-66
2021/06/07 14:20:46;;;;;;;1.50;1.02;;;25.00;92.20;;;;;;5111481;28;20045;-66
2021/06/07 14:26:03;;;;;;;3.40;1.27;;;25.00;92.30;;;;;;5111278;28;20055;-64
2021/06/07 14:28:29;;;;;;;1.50;1.00;;;25.00;92.20;;;;;;5111506;28;20028;-62
2021/06/07 14:30:55;;;;;;;1.65;1.00;;;25.00;92.50;;;;;;5111498;28;20043;-63
2021/06/07 14:33:21;;;;;;;1.63;1.10;;;24.90;92.50;;;;;;5112171;28;20080;-63
2021/06/07 14:35:46;;;;;;;1.67;0.95;;;24.90;92.50;;;;;;5111367;28;20134;-63
2021/06/07 14:38:12;;;;;;;1.42;0.98;;;24.90;92.30;;;;;;5111480;28;20428;-63
2021/06/07 14:40:40;;;;;;;1.10;1.00;;;24.90;92.20;;;;;;5113193;28;20027;-65
2021/06/07 14:43:11;;;;;;;1.55;1.02;;;25.00;92.40;;;;;;5115919;28;20035;-65
2021/06/07 14:45:38;;;;;;;3.95;1.10;;;25.00;92.60;;;;;;5115018;28;20094;-63
2021/06/07 14:48:05;;;;;;;7.53;1.30;;;25.00;92.70;;;;;;5114820;28;20463;-65
2021/06/07 14:50:31;;;;;;;6.90;1.23;;;25.10;92.80;;;;;;5114702;28;20039;-66
2021/06/07 14:52:56;;;;;;;4.38;1.30;;;25.10;92.70;;;;;;5115625;28;20028;-62
2021/06/07 14:55:24;;;;;;;4.20;1.10;;;25.10;92.80;;;;;;5115913;28;20360;-64
2021/06/07 14:57:49;;;;;;;4.03;1.30;;;25.20;93.00;;;;;;5115492;28;20547;-62
2021/06/07 15:00:16;;;;;;;3.90;1.00;;;25.20;93.00;;;;;;5114676;28;20106;-63
2021/06/07 15:02:42;;;;;;;4.72;0.93;;;25.20;93.10;;;;;;5115114;28;20043;-69
2021/06/07 15:05:09;;;;;;;6.03;1.00;;;25.30;93.00;;;;;;5115246;28;20028;-63
2021/06/07 15:07:35;;;;;;;2.72;1.30;;;25.20;92.90;;;;;;5115087;28;20080;-63
2021/06/07 15:10:02;;;;;;;4.60;1.27;;;25.20;92.90;;;;;;5115272;28;20483;-62
2021/06/07 15:12:27;;;;;;;5.22;1.00;;;25.10;92.70;;;;;;5114919;28;20023;-62
2021/06/07 15:14:53;;;;;;;2.78;1.17;;;25.10;92.70;;;;;;5115151;28;20099;-64
2021/06/07 15:17:22;;;;;;;3.08;1.05;;;25.20;92.60;;;;;;5115394;28;20052;-62
2021/06/07 15:19:48;;;;;;;3.10;1.20;;;25.20;92.50;;;;;;5114716;28;20058;-65
2021/06/07 15:22:14;;;;;;;1.98;1.17;;;25.20;92.60;;;;;;5114620;28;20023;-64
2021/06/07 15:24:40;;;;;;;5.00;0.90;;;25.20;92.60;;;;;;5114606;28;20080;-66
2021/06/07 15:27:06;;;;;;;2.03;1.10;;;25.20;92.70;;;;;;5114865;28;20028;-68
2021/06/07 15:29:32;;;;;;;2.05;1.00;;;25.30;92.60;;;;;;5114679;28;20045;-63
2021/06/07 15:31:58;;;;;;;1.48;1.10;;;25.20;92.60;;;;;;5114210;28;20035;-62
2021/06/07 15:34:24;;;;;;;2.00;1.17;;;25.30;92.60;;;;;;5114522;28;20024;-66
2021/06/07 15:36:49;;;;;;;2.95;1.15;;;25.30;92.80;;;;;;5114935;28;20106;-67
2021/06/07 15:39:15;;;;;;;1.10;1.00;;;25.30;92.70;;;;;;5114713;28;20030;-63
2021/06/07 15:41:41;;;;;;;1.67;1.10;;;25.30;92.70;;;;;;5114415;28;20024;-63
2021/06/07 15:44:07;;;;;;;1.30;0.90;;;25.30;92.60;;;;;;5114359;28;20027;-65
2021/06/07 15:46:33;;;;;;;1.40;1.05;;;25.30;92.60;;;;;;5114096;28;20029;-66
2021/06/07 15:49:00;;;;;;;1.48;1.10;;;25.30;92.50;;;;;;5113704;28;20031;-62
2021/06/07 15:51:26;;;;;;;1.23;0.82;;;25.30;92.60;;;;;;5113715;28;20057;-63
2021/06/07 15:53:53;;;;;;;2.50;1.15;;;25.30;92.60;;;;;;5114769;28;20038;-64
2021/06/07 15:56:20;;;;;;;1.95;1.30;;;25.40;92.70;;;;;;5114257;28;20035;-73
2021/06/07 15:58:46;;;;;;;2.05;1.35;;;25.40;92.70;;;;;;5114233;28;20379;-74
2021/06/07 16:01:14;;;;;;;1.30;0.93;;;25.40;92.60;;;;;;5114087;28;20038;-69
2021/06/07 16:03:41;;;;;;;2.63;1.13;;;25.40;92.70;;;;;;5113882;27;20483;-72
2021/06/07 16:06:08;;;;;;;2.03;1.02;;;25.40;92.60;;;;;;5113880;28;20543;-74
2021/06/07 16:08:35;;;;;;;2.42;1.30;;;25.40;92.60;;;;;;5113923;28;20019;-69
2021/06/07 16:11:01;;;;;;;0.80;0.80;;;25.40;92.60;;;;;;5114074;28;20104;-62
2021/06/07 16:13:27;;;;;;;1.52;1.20;;;25.40;92.60;;;;;;5114147;28;20020;-62
2021/06/07 16:15:59;;;;;;;1.10;1.00;;;25.40;92.70;;;;;;5113425;28;20027;-62
2021/06/07 16:18:48;;;;;;;1.00;0.82;;;25.40;92.60;;;;;;5114758;27;20031;-62
2021/06/07 16:21:16;;;;;;;1.10;0.90;;;25.40;92.60;;;;;;5119169;27;20035;-64
2021/06/07 16:23:51;;;;;;;1.58;1.00;;;25.40;92.70;;;;;;5113715;28;20023;-66
2021/06/07 16:26:20;;;;;;;1.17;0.93;;;25.40;92.80;;;;;;5113868;28;20036;-64
2021/06/07 16:28:47;;;;;;;1.60;1.13;;;25.40;93.20;;;;;;5113327;28;20031;-65
2021/06/07 16:31:16;;;;;;;1.70;1.10;;;25.40;92.80;;;;;;5112017;28;20023;-63
2021/06/07 16:33:42;;;;;;;1.33;1.10;;;25.50;92.80;;;;;;5108454;28;20085;-64
2021/06/07 16:36:07;;;;;;;1.65;1.00;;;25.50;92.80;;;;;;5112492;28;20028;-64
2021/06/07 16:38:33;;;;;;;1.42;1.10;;;25.50;92.80;;;;;;5112928;27;20027;-63
2021/06/07 16:40:59;;;;;;;2.22;1.10;;;25.50;92.70;;;;;;5113550;28;20447;-62
2021/06/07 16:43:25;;;;;;;1.30;0.90;;;25.50;92.80;;;;;;5113501;28;20034;-63
2021/06/07 16:45:50;;;;;;;1.17;1.02;;;25.50;92.90;;;;;;5112676;28;20093;-65
2021/06/07 16:48:16;;;;;;;1.50;1.08;;;25.50;93.00;;;;;;5112153;28;20027;-64
2021/06/07 16:50:44;;;;;;;1.83;1.23;;;25.50;92.80;;;;;;5111404;28;20103;-63
2021/06/07 16:53:10;;;;;;;1.52;0.95;;;25.50;92.70;;;;;;5110032;28;20015;-62
2021/06/07 16:55:36;;;;;;;1.13;1.00;;;25.40;92.60;;;;;;5112009;28;20049;-61
2021/06/07 16:58:06;;;;;;;2.53;1.17;;;25.40;92.60;;;;;;5112403;28;20476;-62
2021/06/07 17:00:34;;;;;;;1.92;1.00;;;25.40;92.60;;;;;;5112642;28;20069;-63
2021/06/07 17:03:00;;;;;;;1.15;0.90;;;25.40;92.60;;;;;;5112165;28;20016;-62
2021/06/07 17:05:25;;;;;;;1.30;1.00;;;25.40;92.60;;;;;;5112661;28;20031;-63
2021/06/07 17:07:51;;;;;;;1.30;1.20;;;25.40;92.50;;;;;;5113176;28;20068;-62
2021/06/07 17:10:17;;;;;;;1.75;0.93;;;25.40;92.60;;;;;;5112840;28;20041;-62
2021/06/07 17:12:45;;;;;;;0.90;0.90;;;25.40;92.50;;;;;;5112199;28;20035;-63
2021/06/07 17:15:24;;;;;;;1.55;1.30;;;25.40;92.50;;;;;;5112173;28;20074;-63
2021/06/07 17:17:50;;;;;;;1.58;1.00;;;25.40;92.50;;;;;;5112184;28;20016;-63
2021/06/07 17:20:17;;;;;;;1.27;1.02;;;25.40;92.50;;;;;;5112741;28;20032;-63
2021/06/07 17:22:43;;;;;;;1.17;1.05;;;25.40;92.50;;;;;;5112152;28;20038;-66
2021/06/07 17:25:08;;;;;;;1.38;0.95;;;25.40;92.50;;;;;;5111612;28;20021;-62
2021/06/07 17:27:34;;;;;;;1.35;1.25;;;25.30;92.40;;;;;;5111717;28;20023;-65
2021/06/07 17:30:00;;;;;;;1.05;0.90;;;25.40;92.50;;;;;;5111876;28;20035;-62
2021/06/07 17:32:26;;;;;;;2.45;1.30;;;25.40;92.50;;;;;;5112709;28;20024;-64
2021/06/07 17:34:52;;;;;;;1.00;0.90;;;25.30;92.40;;;;;;5112326;28;20490;-66
2021/06/07 17:37:18;;;;;;;1.10;1.00;;;25.30;92.40;;;;;;5112220;28;20038;-63
2021/06/07 17:39:43;;;;;;;1.60;1.00;;;25.30;92.40;;;;;;5111325;28;20024;-66
2021/06/07 17:42:09;;;;;;;2.15;1.05;;;25.30;92.30;;;;;;5111003;28;20024;-63
2021/06/07 17:44:35;;;;;;;1.48;1.00;;;25.30;92.40;;;;;;5110720;27;20035;-62
2021/06/07 17:47:00;;;;;;;1.38;1.13;;;25.30;92.30;;;;;;5110844;28;20028;-68
2021/06/07 17:49:26;;;;;;;1.20;1.10;;;25.30;92.30;;;;;;5112165;28;20035;-64
2021/06/07 17:51:52;;;;;;;1.92;1.33;;;25.30;92.40;;;;;;5110663;28;20465;-62
2021/06/07 17:54:18;;;;;;;1.05;0.93;;;25.30;92.40;;;;;;5110584;28;20030;-62
2021/06/07 17:56:43;;;;;;;1.33;1.00;;;25.30;92.40;;;;;;5109542;28;20483;-62
2021/06/07 17:59:09;;;;;;;1.50;1.02;;;25.30;92.40;;;;;;5112280;28;20065;-63
2021/06/07 18:01:34;;;;;;;1.60;1.10;;;25.30;92.50;;;;;;5111883;28;20048;-65
2021/06/07 18:04:03;;;;;;;1.25;1.15;;;25.30;92.60;;;;;;5112182;28;20027;-65
2021/06/07 18:06:30;;;;;;;1.52;1.10;;;25.30;92.40;;;;;;5111463;28;20024;-62
2021/06/07 18:08:57;;;;;;;1.55;0.90;;;25.30;92.40;;;;;;5111339;28;20036;-62
2021/06/07 18:11:22;;;;;;;1.95;1.00;;;25.30;92.40;;;;;;5112281;28;20032;-62
2021/06/07 18:13:48;;;;;;;1.92;0.90;;;25.30;92.40;;;;;;5111248;28;20032;-64
2021/06/07 18:16:14;;;;;;;1.40;0.88;;;25.30;92.30;;;;;;5111469;28;20070;-62
2021/06/07 18:18:39;;;;;;;1.80;1.20;;;25.20;92.30;;;;;;5111220;28;20480;-62
2021/06/07 18:21:05;;;;;;;1.10;1.00;;;25.20;92.30;;;;;;5111898;28;20099;-63
2021/06/07 18:23:33;;;;;;;1.42;1.02;;;25.20;92.40;;;;;;5110850;28;20024;-65
2021/06/07 18:25:59;;;;;;;1.10;0.90;;;25.20;92.40;;;;;;5111624;28;20066;-72
2021/06/07 18:28:25;;;;;;;1.80;0.90;;;25.20;92.30;;;;;;5111963;28;20047;-71
2021/06/07 18:30:51;;;;;;;1.15;0.88;;;25.20;92.30;;;;;;5110801;28;20028;-72
2021/06/07 18:33:16;;;;;;;2.05;1.10;;;25.20;92.20;;;;;;5111550;28;20023;-68
2021/06/07 18:35:43;;;;;;;1.55;1.30;;;25.20;92.40;;;;;;5111873;28;20028;-64
2021/06/07 18:38:08;;;;;;;1.75;1.13;;;25.10;92.30;;;;;;5112017;28;20030;-63
2021/06/07 18:40:34;;;;;;;1.25;1.10;;;25.20;92.20;;;;;;5109910;28;20023;-63
2021/06/07 18:43:00;;;;;;;1.58;0.98;;;25.20;92.20;;;;;;5111175;28;20023;-62
2021/06/07 18:45:26;;;;;;;1.50;1.10;;;25.20;92.10;;;;;;5111968;28;20115;-63
2021/06/07 18:47:53;;;;;;;1.08;0.98;;;25.20;91.90;;;;;;5111930;28;20020;-61
2021/06/07 18:50:20;;;;;;;1.40;1.13;;;25.20;92.00;;;;;;5110446;28;20384;-62
2021/06/07 18:52:49;;;;;;;1.33;1.23;;;25.20;91.90;;;;;;5111201;28;20024;-62
2021/06/07 18:55:22;;;;;;;1.48;1.20;;;25.20;91.90;;;;;;5097445;28;20024;-61
2021/06/07 18:57:48;;;;;;;1.20;0.90;;;25.20;92.00;;;;;;5109795;28;20051;-64
2021/06/07 19:00:14;;;;;;;1.45;1.10;;;25.20;92.10;;;;;;5111589;28;20020;-64
2021/06/07 19:02:41;;;;;;;1.77;1.00;;;25.10;92.00;;;;;;5110668;28;20116;-63
2021/06/07 19:05:08;;;;;;;2.28;0.98;;;25.20;92.00;;;;;;5111739;28;20110;-64
2021/06/07 19:07:34;;;;;;;2.25;1.08;;;25.10;91.90;;;;;;5111117;28;20028;-64
2021/06/07 19:10:00;;;;;;;1.67;1.15;;;25.10;92.00;;;;;;5111142;28;20036;-65
2021/06/07 19:12:26;;;;;;;1.52;1.35;;;25.10;92.20;;;;;;5111265;28;20046;-61
2021/06/07 19:14:53;;;;;;;2.03;1.30;;;25.10;92.10;;;;;;5111237;28;20043;-62
2021/06/07 19:17:23;;;;;;;1.52;1.42;;;25.00;92.10;;;;;;5111653;28;20391;-62
2021/06/07 19:19:50;;;;;;;2.15;1.60;;;25.10;92.20;;;;;;5110784;28;20391;-63
2021/06/07 19:22:16;;;;;;;1.50;1.20;;;25.00;92.10;;;;;;5109514;28;20016;-61
2021/06/07 19:24:42;;;;;;;2.45;1.58;;;25.00;92.10;;;;;;5110879;28;20026;-63